^^
Saratoga-Weather Station Historical Data
Daily Summary for January 11, 2021 Units:  Both    English   Metric
Daily Weekly Monthly Yearly Custom
  High: Low: Average:
Temperature: 30.2 °F /  -1 °C 18.7 °F /  -7.4 °C 23.4 °F /  -4.8 °C
Dew Point: 22.8 °F /  -5.1 °C 15.8 °F /  -9 °C 19 °F /  -7.2 °C
Humidity: 93% 65% 84%
Wind Speed: 13mph /  20.9km/h - 1.8mph /  2.9km/h
Wind Gust: 14mph /  22.5km/h - -
Wind- - East
Pressure: 30.4 in /  1027.8 hPa 30.2 in /  1021.0 hPa -
Precipitation: 0 in /  0.0 mm    
Historical Graphs
 
 
Tabular Data for January 11, 2021
Time Temperature Dew Point Pressure Wind Wind Speed Wind Gust Humidity Rainfall Rate (Hourly) solar
00:04 19.8 °F /  -6.8 °C 16.3 °F /  -8.7 °C 30.2in /  1021.0hPa Calm     86% 0in /  0.0mm 0 W/m2
00:09 19.6 °F /  -6.9 °C 16.2 °F /  -8.8 °C 30.2in /  1021.0hPa Calm     86% 0in /  0.0mm 0 W/m2
00:14 19.4 °F /  -7 °C 16.2 °F /  -8.8 °C 30.2in /  1021.3hPa Calm     87% 0in /  0.0mm 0 W/m2
00:19 19.2 °F /  -7.1 °C 16 °F /  -8.9 °C 30.2in /  1021.3hPa Calm     87% 0in /  0.0mm 0 W/m2
00:24 19 °F /  -7.2 °C 15.8 °F /  -9 °C 30.2in /  1021.3hPa Calm     87% 0in /  0.0mm 0 W/m2
00:29 19 °F /  -7.2 °C 16.2 °F /  -8.8 °C 30.2in /  1021.3hPa Calm   1mph /  1.6km/h 88% 0in /  0.0mm 0 W/m2
00:34 19 °F /  -7.2 °C 16.2 °F /  -8.8 °C 30.2in /  1021.3hPa Calm     88% 0in /  0.0mm 0 W/m2
00:39 19 °F /  -7.2 °C 16.2 °F /  -8.8 °C 30.2in /  1021.3hPa Calm     88% 0in /  0.0mm 0 W/m2
00:44 19 °F /  -7.2 °C 16.3 °F /  -8.7 °C 30.2in /  1021.7hPa Calm     89% 0in /  0.0mm 0 W/m2
00:49 19 °F /  -7.2 °C 16.3 °F /  -8.7 °C 30.2in /  1021.7hPa Calm     89% 0in /  0.0mm 0 W/m2
00:54 19 °F /  -7.2 °C 16.3 °F /  -8.7 °C 30.2in /  1021.7hPa Calm     89% 0in /  0.0mm 0 W/m2
00:59 18.9 °F /  -7.3 °C 16.2 °F /  -8.8 °C 30.2in /  1021.7hPa Calm     89% 0in /  0.0mm 0 W/m2
01:04 19 °F /  -7.2 °C 16.5 °F /  -8.6 °C 30.2in /  1021.7hPa Calm     90% 0in /  0.0mm 0 W/m2
01:09 19 °F /  -7.2 °C 16.5 °F /  -8.6 °C 30.2in /  1021.7hPa Calm     90% 0in /  0.0mm 0 W/m2
01:14 19 °F /  -7.2 °C 16.5 °F /  -8.6 °C 30.2in /  1021.7hPa Calm     90% 0in /  0.0mm 0 W/m2
01:19 19 °F /  -7.2 °C 16.5 °F /  -8.6 °C 30.2in /  1022.0hPa Calm     90% 0in /  0.0mm 0 W/m2
01:24 19.2 °F /  -7.1 °C 16.7 °F /  -8.5 °C 30.2in /  1022.0hPa Calm   1mph /  1.6km/h 90% 0in /  0.0mm 0 W/m2
01:29 19.2 °F /  -7.1 °C 16.7 °F /  -8.5 °C 30.2in /  1022.0hPa Calm     90% 0in /  0.0mm 0 W/m2
01:34 19.2 °F /  -7.1 °C 16.7 °F /  -8.5 °C 30.2in /  1022.0hPa Calm     90% 0in /  0.0mm 0 W/m2
01:39 19.2 °F /  -7.1 °C 16.7 °F /  -8.5 °C 30.2in /  1022.0hPa Calm   1mph /  1.6km/h 90% 0in /  0.0mm 0 W/m2
01:44 19 °F /  -7.2 °C 16.3 °F /  -8.7 °C 30.2in /  1022.0hPa SE 0.9mph /  1.4km/h 1mph /  1.6km/h 89% 0in /  0.0mm 0 W/m2
01:49 19 °F /  -7.2 °C 16.3 °F /  -8.7 °C 30.2in /  1022.0hPa Calm   1mph /  1.6km/h 89% 0in /  0.0mm 0 W/m2
01:54 18.9 °F /  -7.3 °C 16.3 °F /  -8.7 °C 30.2in /  1022.0hPa Calm   1mph /  1.6km/h 90% 0in /  0.0mm 0 W/m2
01:59 18.9 °F /  -7.3 °C 16.3 °F /  -8.7 °C 30.2in /  1022.0hPa Calm     90% 0in /  0.0mm 0 W/m2
02:04 18.7 °F /  -7.4 °C 16.2 °F /  -8.8 °C 30.2in /  1022.4hPa Calm   1mph /  1.6km/h 90% 0in /  0.0mm 0 W/m2
02:09 18.7 °F /  -7.4 °C 16.2 °F /  -8.8 °C 30.2in /  1022.4hPa Calm     90% 0in /  0.0mm 0 W/m2
02:14 18.9 °F /  -7.3 °C 16.3 °F /  -8.7 °C 30.2in /  1022.4hPa Calm     90% 0in /  0.0mm 0 W/m2
02:19 18.9 °F /  -7.3 °C 16.7 °F /  -8.5 °C 30.2in /  1022.4hPa Calm     91% 0in /  0.0mm 0 W/m2
02:24 19.2 °F /  -7.1 °C 17.1 °F /  -8.3 °C 30.2in /  1022.7hPa Calm     91% 0in /  0.0mm 0 W/m2
02:29 19.6 °F /  -6.9 °C 17.4 °F /  -8.1 °C 30.2in /  1022.7hPa Calm     91% 0in /  0.0mm 0 W/m2
02:34 19.8 °F /  -6.8 °C 17.6 °F /  -8 °C 30.2in /  1022.7hPa SE 0.9mph /  1.4km/h 2mph /  3.2km/h 91% 0in /  0.0mm 0 W/m2
02:39 20.1 °F /  -6.6 °C 18 °F /  -7.8 °C 30.2in /  1022.7hPa Calm   1mph /  1.6km/h 91% 0in /  0.0mm 0 W/m2
02:44 20.3 °F /  -6.5 °C 18.1 °F /  -7.7 °C 30.2in /  1022.7hPa Calm   2mph /  3.2km/h 91% 0in /  0.0mm 0 W/m2
02:49 20.5 °F /  -6.4 °C 18 °F /  -7.8 °C 30.2in /  1022.7hPa Calm     90% 0in /  0.0mm 0 W/m2
02:54 20.3 °F /  -6.5 °C 17.8 °F /  -7.9 °C 30.2in /  1022.7hPa Calm   2mph /  3.2km/h 90% 0in /  0.0mm 0 W/m2
02:59 20.3 °F /  -6.5 °C 17.6 °F /  -8 °C 30.2in /  1022.7hPa SE 0.9mph /  1.4km/h 1mph /  1.6km/h 89% 0in /  0.0mm 0 W/m2
03:04 20.1 °F /  -6.6 °C 17.4 °F /  -8.1 °C 30.2in /  1023.0hPa Calm   1mph /  1.6km/h 89% 0in /  0.0mm 0 W/m2
03:09 20.1 °F /  -6.6 °C 17.4 °F /  -8.1 °C 30.2in /  1023.0hPa SE 0.9mph /  1.4km/h 1mph /  1.6km/h 89% 0in /  0.0mm 0 W/m2
03:14 20.1 °F /  -6.6 °C 17.6 °F /  -8 °C 30.2in /  1023.0hPa Calm   1mph /  1.6km/h 90% 0in /  0.0mm 0 W/m2
03:19 20.1 °F /  -6.6 °C 17.6 °F /  -8 °C 30.2in /  1023.0hPa SE 0.9mph /  1.4km/h 2mph /  3.2km/h 90% 0in /  0.0mm 0 W/m2
03:24 20.1 °F /  -6.6 °C 17.6 °F /  -8 °C 30.2in /  1023.0hPa Calm   1mph /  1.6km/h 90% 0in /  0.0mm 0 W/m2
03:29 20.3 °F /  -6.5 °C 17.8 °F /  -7.9 °C 30.2in /  1023.0hPa Calm     90% 0in /  0.0mm 0 W/m2
03:34 20.3 °F /  -6.5 °C 17.8 °F /  -7.9 °C 30.2in /  1023.0hPa Calm   1mph /  1.6km/h 90% 0in /  0.0mm 0 W/m2
03:39 20.3 °F /  -6.5 °C 17.6 °F /  -8 °C 30.2in /  1023.0hPa Calm     89% 0in /  0.0mm 0 W/m2
03:44 20.1 °F /  -6.6 °C 17.4 °F /  -8.1 °C 30.2in /  1023.0hPa Calm     89% 0in /  0.0mm 0 W/m2
03:49 20.1 °F /  -6.6 °C 17.4 °F /  -8.1 °C 30.2in /  1023.4hPa Calm     89% 0in /  0.0mm 0 W/m2
03:54 19.9 °F /  -6.7 °C 17.4 °F /  -8.1 °C 30.2in /  1023.4hPa Calm     90% 0in /  0.0mm 0 W/m2
03:59 19.9 °F /  -6.7 °C 17.4 °F /  -8.1 °C 30.2in /  1023.4hPa Calm     90% 0in /  0.0mm 0 W/m2
04:04 19.9 °F /  -6.7 °C 17.4 °F /  -8.1 °C 30.2in /  1023.4hPa Calm     90% 0in /  0.0mm 0 W/m2
04:09 19.8 °F /  -6.8 °C 17.2 °F /  -8.2 °C 30.2in /  1023.4hPa Calm     90% 0in /  0.0mm 0 W/m2
04:14 19.9 °F /  -6.7 °C 17.8 °F /  -7.9 °C 30.2in /  1023.4hPa Calm     91% 0in /  0.0mm 0 W/m2
04:19 19.9 °F /  -6.7 °C 17.8 °F /  -7.9 °C 30.2in /  1023.4hPa Calm     91% 0in /  0.0mm 0 W/m2
04:24 19.9 °F /  -6.7 °C 17.8 °F /  -7.9 °C 30.2in /  1023.4hPa Calm     91% 0in /  0.0mm 0 W/m2
04:29 19.8 °F /  -6.8 °C 17.6 °F /  -8 °C 30.2in /  1023.4hPa Calm     91% 0in /  0.0mm 0 W/m2
04:34 19.8 °F /  -6.8 °C 17.6 °F /  -8 °C 30.2in /  1023.4hPa Calm     91% 0in /  0.0mm 0 W/m2
04:39 19.8 °F /  -6.8 °C 17.6 °F /  -8 °C 30.2in /  1023.7hPa Calm   1mph /  1.6km/h 91% 0in /  0.0mm 0 W/m2
04:44 19.9 °F /  -6.7 °C 17.8 °F /  -7.9 °C 30.2in /  1023.7hPa Calm   1mph /  1.6km/h 91% 0in /  0.0mm 0 W/m2
04:49 20.1 °F /  -6.6 °C 18 °F /  -7.8 °C 30.2in /  1024.0hPa Calm     91% 0in /  0.0mm 0 W/m2
04:54 20.1 °F /  -6.6 °C 18 °F /  -7.8 °C 30.2in /  1024.0hPa Calm     91% 0in /  0.0mm 0 W/m2
04:59 20.1 °F /  -6.6 °C 18 °F /  -7.8 °C 30.2in /  1024.0hPa Calm   1mph /  1.6km/h 91% 0in /  0.0mm 0 W/m2
05:04 19.9 °F /  -6.7 °C 17.8 °F /  -7.9 °C 30.2in /  1024.0hPa Calm     91% 0in /  0.0mm 0 W/m2
05:09 19.8 °F /  -6.8 °C 17.2 °F /  -8.2 °C 30.2in /  1024.0hPa Calm     90% 0in /  0.0mm 0 W/m2
05:14 19.6 °F /  -6.9 °C 17.1 °F /  -8.3 °C 30.2in /  1024.0hPa Calm     90% 0in /  0.0mm 0 W/m2
05:19 19.6 °F /  -6.9 °C 17.4 °F /  -8.1 °C 30.2in /  1024.0hPa Calm     91% 0in /  0.0mm 0 W/m2
05:24 19.2 °F /  -7.1 °C 17.1 °F /  -8.3 °C 30.3in /  1024.4hPa Calm     91% 0in /  0.0mm 0 W/m2
05:29 19.2 °F /  -7.1 °C 17.1 °F /  -8.3 °C 30.3in /  1024.4hPa Calm   1mph /  1.6km/h 91% 0in /  0.0mm 0 W/m2
05:34 19 °F /  -7.2 °C 16.9 °F /  -8.4 °C 30.3in /  1024.4hPa Calm     91% 0in /  0.0mm 0 W/m2
05:40 19 °F /  -7.2 °C 16.9 °F /  -8.4 °C 30.3in /  1024.4hPa Calm     91% 0in /  0.0mm 0 W/m2
05:45 19 °F /  -7.2 °C 16.9 °F /  -8.4 °C 30.3in /  1024.7hPa Calm   1mph /  1.6km/h 91% 0in /  0.0mm 0 W/m2
05:50 18.9 °F /  -7.3 °C 16.7 °F /  -8.5 °C 30.3in /  1024.7hPa Calm     91% 0in /  0.0mm 0 W/m2
05:55 18.9 °F /  -7.3 °C 16.7 °F /  -8.5 °C 30.3in /  1024.7hPa Calm   1mph /  1.6km/h 91% 0in /  0.0mm 0 W/m2
06:00 18.9 °F /  -7.3 °C 16.7 °F /  -8.5 °C 30.3in /  1024.7hPa Calm   1mph /  1.6km/h 91% 0in /  0.0mm 0 W/m2
06:05 18.9 °F /  -7.3 °C 16.9 °F /  -8.4 °C 30.3in /  1025.1hPa Calm     92% 0in /  0.0mm 0 W/m2
06:10 18.9 °F /  -7.3 °C 16.9 °F /  -8.4 °C 30.3in /  1025.1hPa Calm   1mph /  1.6km/h 92% 0in /  0.0mm 0 W/m2
06:15 19 °F /  -7.2 °C 17.1 °F /  -8.3 °C 30.3in /  1025.1hPa Calm   1mph /  1.6km/h 92% 0in /  0.0mm 0 W/m2
06:20 19.2 °F /  -7.1 °C 17.6 °F /  -8 °C 30.3in /  1025.1hPa Calm   1mph /  1.6km/h 93% 0in /  0.0mm 0 W/m2
06:25 19.6 °F /  -6.9 °C 17.6 °F /  -8 °C 30.3in /  1025.1hPa Calm     92% 0in /  0.0mm 0 W/m2
06:30 19.8 °F /  -6.8 °C 18.1 °F /  -7.7 °C 30.3in /  1025.1hPa Calm     93% 0in /  0.0mm 0 W/m2
06:35 19.8 °F /  -6.8 °C 17.8 °F /  -7.9 °C 30.3in /  1025.1hPa Calm     92% 0in /  0.0mm 0 W/m2
06:40 19.8 °F /  -6.8 °C 17.8 °F /  -7.9 °C 30.3in /  1025.1hPa Calm     92% 0in /  0.0mm 0 W/m2
06:45 19.9 °F /  -6.7 °C 18 °F /  -7.8 °C 30.3in /  1025.1hPa Calm     92% 0in /  0.0mm 0 W/m2
06:50 19.9 °F /  -6.7 °C 18 °F /  -7.8 °C 30.3in /  1025.1hPa Calm     92% 0in /  0.0mm 0 W/m2
06:55 20.1 °F /  -6.6 °C 18.1 °F /  -7.7 °C 30.3in /  1025.1hPa Calm     92% 0in /  0.0mm 0 W/m2
07:00 20.1 °F /  -6.6 °C 18.1 °F /  -7.7 °C 30.3in /  1025.1hPa Calm     92% 0in /  0.0mm 0 W/m2
07:05 20.5 °F /  -6.4 °C 18.5 °F /  -7.5 °C 30.3in /  1025.4hPa Calm     92% 0in /  0.0mm 0 W/m2
07:10 20.5 °F /  -6.4 °C 18.5 °F /  -7.5 °C 30.3in /  1025.4hPa Calm     92% 0in /  0.0mm 0 W/m2
07:15 20.5 °F /  -6.4 °C 18.5 °F /  -7.5 °C 30.3in /  1025.4hPa Calm     92% 0in /  0.0mm 0 W/m2
07:20 20.7 °F /  -6.3 °C 18.7 °F /  -7.4 °C 30.3in /  1025.7hPa Calm     92% 0in /  0.0mm 0 W/m2
07:25 20.7 °F /  -6.3 °C 18.7 °F /  -7.4 °C 30.3in /  1025.7hPa Calm     92% 0in /  0.0mm 0 W/m2
07:30 20.8 °F /  -6.2 °C 18.7 °F /  -7.4 °C 30.3in /  1025.7hPa Calm   1mph /  1.6km/h 91% 0in /  0.0mm 0 W/m2
07:35 20.8 °F /  -6.2 °C 18.7 °F /  -7.4 °C 30.3in /  1025.7hPa West 0.9mph /  1.4km/h 2mph /  3.2km/h 91% 0in /  0.0mm 0 W/m2
07:40 21 °F /  -6.1 °C 18.9 °F /  -7.3 °C 30.3in /  1025.7hPa Calm     91% 0in /  0.0mm 0 W/m2
07:45 21 °F /  -6.1 °C 18.9 °F /  -7.3 °C 30.3in /  1026.1hPa Calm     91% 0in /  0.0mm 0 W/m2
07:50 21.2 °F /  -6 °C 19 °F /  -7.2 °C 30.3in /  1026.1hPa Calm     91% 0in /  0.0mm 0 W/m2
07:55 21.2 °F /  -6 °C 18.7 °F /  -7.4 °C 30.3in /  1026.1hPa North 0.9mph /  1.4km/h 1mph /  1.6km/h 90% 0in /  0.0mm 5 W/m2
08:00 21.4 °F /  -5.9 °C 18.9 °F /  -7.3 °C 30.3in /  1026.1hPa Calm   2mph /  3.2km/h 90% 0in /  0.0mm 5 W/m2
08:05 21.4 °F /  -5.9 °C 18.9 °F /  -7.3 °C 30.3in /  1026.1hPa Calm   3mph /  4.8km/h 90% 0in /  0.0mm 7 W/m2
08:10 21.6 °F /  -5.8 °C 19 °F /  -7.2 °C 30.3in /  1026.1hPa NE 0.9mph /  1.4km/h 2mph /  3.2km/h 90% 0in /  0.0mm 14 W/m2
08:15 21.6 °F /  -5.8 °C 19 °F /  -7.2 °C 30.3in /  1026.1hPa Calm   3mph /  4.8km/h 90% 0in /  0.0mm 19 W/m2
08:21 21.6 °F /  -5.8 °C 19 °F /  -7.2 °C 30.3in /  1026.1hPa Calm   2mph /  3.2km/h 90% 0in /  0.0mm 23 W/m2
08:25 21.7 °F /  -5.7 °C 19.2 °F /  -7.1 °C 30.3in /  1026.4hPa NE 2mph /  3.2km/h 2mph /  3.2km/h 90% 0in /  0.0mm 39 W/m2
08:30 21.7 °F /  -5.7 °C 19.2 °F /  -7.1 °C 30.3in /  1026.4hPa Calm   2mph /  3.2km/h 90% 0in /  0.0mm 37 W/m2
08:35 21.7 °F /  -5.7 °C 19 °F /  -7.2 °C 30.3in /  1026.4hPa Calm   1mph /  1.6km/h 89% 0in /  0.0mm 40 W/m2
08:40 21.7 °F /  -5.7 °C 19 °F /  -7.2 °C 30.3in /  1026.8hPa ESE 2.9mph /  4.7km/h 4mph /  6.4km/h 89% 0in /  0.0mm 49 W/m2
08:45 21.7 °F /  -5.7 °C 19 °F /  -7.2 °C 30.3in /  1026.8hPa Calm   2mph /  3.2km/h 89% 0in /  0.0mm 58 W/m2
08:50 21.7 °F /  -5.7 °C 19 °F /  -7.2 °C 30.3in /  1026.8hPa Calm   4mph /  6.4km/h 89% 0in /  0.0mm 33 W/m2
08:55 21.9 °F /  -5.6 °C 19.2 °F /  -7.1 °C 30.3in /  1026.8hPa Calm   3mph /  4.8km/h 89% 0in /  0.0mm 72 W/m2
09:00 21.9 °F /  -5.6 °C 19.2 °F /  -7.1 °C 30.3in /  1026.8hPa East 0.9mph /  1.4km/h 3mph /  4.8km/h 89% 0in /  0.0mm 81 W/m2
09:06 22.1 °F /  -5.5 °C 19.4 °F /  -7 °C 30.3in /  1026.8hPa ENE 0.9mph /  1.4km/h 2mph /  3.2km/h 89% 0in /  0.0mm 53 W/m2
09:11 22.3 °F /  -5.4 °C 19.6 °F /  -6.9 °C 30.3in /  1026.8hPa ENE 0.9mph /  1.4km/h 3mph /  4.8km/h 89% 0in /  0.0mm 53 W/m2
09:16 22.3 °F /  -5.4 °C 19.6 °F /  -6.9 °C 30.3in /  1026.8hPa ESE 0.9mph /  1.4km/h 6mph /  9.7km/h 89% 0in /  0.0mm 65 W/m2
09:21 22.5 °F /  -5.3 °C 19.8 °F /  -6.8 °C 30.3in /  1026.8hPa East 0.9mph /  1.4km/h 2mph /  3.2km/h 89% 0in /  0.0mm 70 W/m2
09:26 22.6 °F /  -5.2 °C 19.9 °F /  -6.7 °C 30.3in /  1026.8hPa Calm   6mph /  9.7km/h 89% 0in /  0.0mm 137 W/m2
09:31 22.8 °F /  -5.1 °C 20.1 °F /  -6.6 °C 30.3in /  1026.8hPa ENE 0.9mph /  1.4km/h 3mph /  4.8km/h 89% 0in /  0.0mm 167 W/m2
09:36 23.4 °F /  -4.8 °C 20.7 °F /  -6.3 °C 30.3in /  1026.8hPa ENE 0.9mph /  1.4km/h 4mph /  6.4km/h 89% 0in /  0.0mm 178 W/m2
09:41 23.7 °F /  -4.6 °C 20.7 °F /  -6.3 °C 30.3in /  1026.8hPa ESE 2.9mph /  4.7km/h 3mph /  4.8km/h 88% 0in /  0.0mm 120 W/m2
09:46 24.1 °F /  -4.4 °C 21 °F /  -6.1 °C 30.3in /  1026.8hPa East 0.9mph /  1.4km/h 2mph /  3.2km/h 88% 0in /  0.0mm 120 W/m2
09:51 24.4 °F /  -4.2 °C 21.4 °F /  -5.9 °C 30.3in /  1026.8hPa NE 4mph /  6.4km/h 4mph /  6.4km/h 88% 0in /  0.0mm 156 W/m2
09:56 24.6 °F /  -4.1 °C 21.4 °F /  -5.9 °C 30.3in /  1027.1hPa ENE 2.9mph /  4.7km/h 8mph /  12.9km/h 87% 0in /  0.0mm 153 W/m2
10:01 25 °F /  -3.9 °C 21.7 °F /  -5.7 °C 30.3in /  1026.8hPa NE 2mph /  3.2km/h 6mph /  9.7km/h 87% 0in /  0.0mm 181 W/m2
10:06 25.2 °F /  -3.8 °C 21.9 °F /  -5.6 °C 30.3in /  1026.8hPa SE 0.9mph /  1.4km/h 4mph /  6.4km/h 87% 0in /  0.0mm 174 W/m2
10:11 25.5 °F /  -3.6 °C 21.9 °F /  -5.6 °C 30.3in /  1026.8hPa ENE 4mph /  6.4km/h 8mph /  12.9km/h 86% 0in /  0.0mm 141 W/m2
10:16 25.5 °F /  -3.6 °C 21.9 °F /  -5.6 °C 30.3in /  1026.8hPa East 2mph /  3.2km/h 3mph /  4.8km/h 86% 0in /  0.0mm 134 W/m2
10:21 25.7 °F /  -3.5 °C 22.1 °F /  -5.5 °C 30.3in /  1026.8hPa East 2mph /  3.2km/h 7mph /  11.3km/h 86% 0in /  0.0mm 123 W/m2
10:26 25.9 °F /  -3.4 °C 21.9 °F /  -5.6 °C 30.3in /  1026.8hPa NE 0.9mph /  1.4km/h 7mph /  11.3km/h 85% 0in /  0.0mm 81 W/m2
10:31 25.7 °F /  -3.5 °C 21.7 °F /  -5.7 °C 30.3in /  1027.1hPa NE 2mph /  3.2km/h 5mph /  8km/h 85% 0in /  0.0mm 98 W/m2
10:36 25.7 °F /  -3.5 °C 21.7 °F /  -5.7 °C 30.3in /  1026.8hPa East 0.9mph /  1.4km/h 6mph /  9.7km/h 85% 0in /  0.0mm 107 W/m2
10:41 25.7 °F /  -3.5 °C 21.7 °F /  -5.7 °C 30.3in /  1026.8hPa East 2mph /  3.2km/h 7mph /  11.3km/h 85% 0in /  0.0mm 139 W/m2
10:46 25.9 °F /  -3.4 °C 21.9 °F /  -5.6 °C 30.3in /  1027.1hPa Calm   6mph /  9.7km/h 85% 0in /  0.0mm 83 W/m2
10:51 26.1 °F /  -3.3 °C 21.9 °F /  -5.6 °C 30.3in /  1027.1hPa ENE 2.9mph /  4.7km/h 6mph /  9.7km/h 84% 0in /  0.0mm 109 W/m2
10:56 26.1 °F /  -3.3 °C 21.9 °F /  -5.6 °C 30.3in /  1026.8hPa ESE 0.9mph /  1.4km/h 3mph /  4.8km/h 84% 0in /  0.0mm 141 W/m2
11:01 26.2 °F /  -3.2 °C 22.1 °F /  -5.5 °C 30.3in /  1027.1hPa East 6mph /  9.7km/h 6mph /  9.7km/h 84% 0in /  0.0mm 90 W/m2
11:06 26.2 °F /  -3.2 °C 21.7 °F /  -5.7 °C 30.3in /  1027.1hPa East 8.9mph /  14.3km/h 11mph /  17.7km/h 83% 0in /  0.0mm 95 W/m2
11:11 26.4 °F /  -3.1 °C 21.9 °F /  -5.6 °C 30.3in /  1027.1hPa East 0.9mph /  1.4km/h 7mph /  11.3km/h 83% 0in /  0.0mm 221 W/m2
11:16 27 °F /  -2.8 °C 22.3 °F /  -5.4 °C 30.3in /  1027.1hPa ENE 4mph /  6.4km/h 11mph /  17.7km/h 82% 0in /  0.0mm 230 W/m2
11:21 27.5 °F /  -2.5 °C 22.8 °F /  -5.1 °C 30.3in /  1027.1hPa East 13mph /  20.9km/h 13mph /  20.9km/h 82% 0in /  0.0mm 183 W/m2
11:26 27.7 °F /  -2.4 °C 22.3 °F /  -5.4 °C 30.3in /  1027.4hPa ESE 4mph /  6.4km/h 7mph /  11.3km/h 80% 0in /  0.0mm 211 W/m2
11:31 27.9 °F /  -2.3 °C 22.3 °F /  -5.4 °C 30.3in /  1027.4hPa ENE 2.9mph /  4.7km/h 8mph /  12.9km/h 79% 0in /  0.0mm 160 W/m2
11:36 27.9 °F /  -2.3 °C 22.3 °F /  -5.4 °C 30.3in /  1027.4hPa East 2mph /  3.2km/h 6mph /  9.7km/h 79% 0in /  0.0mm 105 W/m2
11:41 27.7 °F /  -2.4 °C 22.1 °F /  -5.5 °C 30.4in /  1027.8hPa ESE 2.9mph /  4.7km/h 6mph /  9.7km/h 79% 0in /  0.0mm 70 W/m2
11:46 27.3 °F /  -2.6 °C 21.7 °F /  -5.7 °C 30.4in /  1027.8hPa ESE 2.9mph /  4.7km/h 7mph /  11.3km/h 79% 0in /  0.0mm 97 W/m2
11:51 27.1 °F /  -2.7 °C 21.2 °F /  -6 °C 30.4in /  1027.8hPa ESE 4mph /  6.4km/h 7mph /  11.3km/h 78% 0in /  0.0mm 69 W/m2
11:56 27.1 °F /  -2.7 °C 21.6 °F /  -5.8 °C 30.3in /  1027.4hPa ESE 4mph /  6.4km/h 8mph /  12.9km/h 79% 0in /  0.0mm 98 W/m2
12:01 27.1 °F /  -2.7 °C 21.2 °F /  -6 °C 30.3in /  1027.4hPa ESE 2.9mph /  4.7km/h 7mph /  11.3km/h 78% 0in /  0.0mm 107 W/m2
12:06 27.1 °F /  -2.7 °C 21.2 °F /  -6 °C 30.3in /  1027.4hPa SE 2.9mph /  4.7km/h 8mph /  12.9km/h 78% 0in /  0.0mm 93 W/m2
12:11 27.1 °F /  -2.7 °C 20.8 °F /  -6.2 °C 30.3in /  1027.4hPa SE 2.9mph /  4.7km/h 7mph /  11.3km/h 77% 0in /  0.0mm 95 W/m2
12:16 27.3 °F /  -2.6 °C 21 °F /  -6.1 °C 30.3in /  1027.4hPa ENE 2.9mph /  4.7km/h 9mph /  14.5km/h 77% 0in /  0.0mm 114 W/m2
12:21 27.3 °F /  -2.6 °C 20.8 °F /  -6.2 °C 30.3in /  1027.4hPa East 6mph /  9.7km/h 7mph /  11.3km/h 76% 0in /  0.0mm 121 W/m2
12:26 27.5 °F /  -2.5 °C 20.7 °F /  -6.3 °C 30.3in /  1027.4hPa NE 4mph /  6.4km/h 11mph /  17.7km/h 75% 0in /  0.0mm 120 W/m2
12:31 27.7 °F /  -2.4 °C 20.8 °F /  -6.2 °C 30.3in /  1027.4hPa East 4mph /  6.4km/h 10mph /  16.1km/h 75% 0in /  0.0mm 105 W/m2
12:36 27.9 °F /  -2.3 °C 21 °F /  -6.1 °C 30.3in /  1027.4hPa ESE 4mph /  6.4km/h 9mph /  14.5km/h 75% 0in /  0.0mm 155 W/m2
12:41 28 °F /  -2.2 °C 21.4 °F /  -5.9 °C 30.3in /  1027.4hPa East 6mph /  9.7km/h 9mph /  14.5km/h 76% 0in /  0.0mm 265 W/m2
12:46 28.2 °F /  -2.1 °C 21.6 °F /  -5.8 °C 30.3in /  1027.4hPa East 6.9mph /  11.1km/h 8mph /  12.9km/h 76% 0in /  0.0mm 204 W/m2
12:51 28.6 °F /  -1.9 °C 21.9 °F /  -5.6 °C 30.3in /  1027.4hPa ESE 4mph /  6.4km/h 8mph /  12.9km/h 76% 0in /  0.0mm 285 W/m2
12:56 28.6 °F /  -1.9 °C 21.9 °F /  -5.6 °C 30.3in /  1027.4hPa East 2mph /  3.2km/h 8mph /  12.9km/h 76% 0in /  0.0mm 97 W/m2
13:01 28.2 °F /  -2.1 °C 21.6 °F /  -5.8 °C 30.3in /  1027.4hPa NE 4mph /  6.4km/h 6mph /  9.7km/h 76% 0in /  0.0mm 86 W/m2
13:06 28 °F /  -2.2 °C 21.7 °F /  -5.7 °C 30.3in /  1027.1hPa ENE 2.9mph /  4.7km/h 8mph /  12.9km/h 77% 0in /  0.0mm 93 W/m2
13:11 28 °F /  -2.2 °C 21.7 °F /  -5.7 °C 30.3in /  1027.1hPa East 4.9mph /  7.9km/h 8mph /  12.9km/h 77% 0in /  0.0mm 123 W/m2
13:16 28 °F /  -2.2 °C 21.7 °F /  -5.7 °C 30.3in /  1027.1hPa ENE 4mph /  6.4km/h 7mph /  11.3km/h 77% 0in /  0.0mm 294 W/m2
13:21 28.4 °F /  -2 °C 21.2 °F /  -6 °C 30.3in /  1027.1hPa ENE 4mph /  6.4km/h 10mph /  16.1km/h 74% 0in /  0.0mm 174 W/m2
13:26 28.8 °F /  -1.8 °C 20.3 °F /  -6.5 °C 30.3in /  1027.1hPa ESE 11mph /  17.7km/h 14mph /  22.5km/h 70% 0in /  0.0mm 134 W/m2
13:31 28.9 °F /  -1.7 °C 20.1 °F /  -6.6 °C 30.3in /  1027.1hPa NNE 11mph /  17.7km/h 11mph /  17.7km/h 69% 0in /  0.0mm 246 W/m2
13:36 29.1 °F /  -1.6 °C 19.6 °F /  -6.9 °C 30.3in /  1027.1hPa East 10.1mph /  16.3km/h 10mph /  16.1km/h 67% 0in /  0.0mm 158 W/m2
13:41 29.1 °F /  -1.6 °C 19.6 °F /  -6.9 °C 30.3in /  1027.1hPa ESE 6.9mph /  11.1km/h 11mph /  17.7km/h 67% 0in /  0.0mm 165 W/m2
13:46 29.1 °F /  -1.6 °C 19.9 °F /  -6.7 °C 30.3in /  1027.1hPa ESE 0.9mph /  1.4km/h 10mph /  16.1km/h 68% 0in /  0.0mm 202 W/m2
13:51 29.1 °F /  -1.6 °C 20.5 °F /  -6.4 °C 30.3in /  1027.1hPa East 4mph /  6.4km/h 11mph /  17.7km/h 70% 0in /  0.0mm 148 W/m2
13:56 28.9 °F /  -1.7 °C 20.5 °F /  -6.4 °C 30.3in /  1027.1hPa East 4.9mph /  7.9km/h 13mph /  20.9km/h 70% 0in /  0.0mm 109 W/m2
14:01 28.8 °F /  -1.8 °C 20.5 °F /  -6.4 °C 30.3in /  1027.1hPa ENE 4mph /  6.4km/h 10mph /  16.1km/h 71% 0in /  0.0mm 135 W/m2
14:06 28.8 °F /  -1.8 °C 20.3 °F /  -6.5 °C 30.3in /  1027.1hPa NE 8.9mph /  14.3km/h 13mph /  20.9km/h 70% 0in /  0.0mm 153 W/m2
14:11 28.8 °F /  -1.8 °C 20.3 °F /  -6.5 °C 30.3in /  1027.1hPa North 0.9mph /  1.4km/h 7mph /  11.3km/h 70% 0in /  0.0mm 156 W/m2
14:16 28.8 °F /  -1.8 °C 20.3 °F /  -6.5 °C 30.3in /  1027.1hPa East 4.9mph /  7.9km/h 11mph /  17.7km/h 70% 0in /  0.0mm 139 W/m2
14:21 28.8 °F /  -1.8 °C 19.9 °F /  -6.7 °C 30.3in /  1027.1hPa ESE 6mph /  9.7km/h 14mph /  22.5km/h 69% 0in /  0.0mm 86 W/m2
14:26 28.6 °F /  -1.9 °C 20.1 °F /  -6.6 °C 30.3in /  1027.1hPa East 2mph /  3.2km/h 8mph /  12.9km/h 70% 0in /  0.0mm 104 W/m2
14:34 28.6 °F /  -1.9 °C 19.8 °F /  -6.8 °C 30.3in /  1027.1hPa NE 0.9mph /  1.4km/h 14mph /  22.5km/h 69% 0in /  0.0mm 174 W/m2
14:36 28.8 °F /  -1.8 °C 19.9 °F /  -6.7 °C 30.3in /  1027.1hPa NNE 13mph /  20.9km/h 13mph /  20.9km/h 69% 0in /  0.0mm 146 W/m2
14:41 28.9 °F /  -1.7 °C 19.4 °F /  -7 °C 30.3in /  1027.1hPa North 2.9mph /  4.7km/h 14mph /  22.5km/h 67% 0in /  0.0mm 113 W/m2
14:48 29.1 °F /  -1.6 °C 19.9 °F /  -6.7 °C 30.3in /  1027.1hPa NE 6mph /  9.7km/h 12mph /  19.3km/h 68% 0in /  0.0mm 165 W/m2
14:51 29.7 °F /  -1.3 °C 20.1 °F /  -6.6 °C 30.3in /  1027.1hPa East 2.9mph /  4.7km/h 14mph /  22.5km/h 67% 0in /  0.0mm 185 W/m2
14:56 29.8 °F /  -1.2 °C 20.3 °F /  -6.5 °C 30.3in /  1027.4hPa East 2.9mph /  4.7km/h 8mph /  12.9km/h 67% 0in /  0.0mm 216 W/m2
15:01 30 °F /  -1.1 °C 20.5 °F /  -6.4 °C 30.3in /  1027.4hPa North 4mph /  6.4km/h 11mph /  17.7km/h 67% 0in /  0.0mm 153 W/m2
15:06 30.2 °F /  -1 °C 19.9 °F /  -6.7 °C 30.3in /  1027.1hPa ENE 4.9mph /  7.9km/h 9mph /  14.5km/h 65% 0in /  0.0mm 116 W/m2
15:11 30 °F /  -1.1 °C 19.8 °F /  -6.8 °C 30.3in /  1027.4hPa ENE 6mph /  9.7km/h 9mph /  14.5km/h 65% 0in /  0.0mm 185 W/m2
15:16 30 °F /  -1.1 °C 20.5 °F /  -6.4 °C 30.3in /  1027.4hPa East 2.9mph /  4.7km/h 8mph /  12.9km/h 67% 0in /  0.0mm 137 W/m2
15:21 29.8 °F /  -1.2 °C 20.3 °F /  -6.5 °C 30.3in /  1027.4hPa NE 2mph /  3.2km/h 9mph /  14.5km/h 67% 0in /  0.0mm 132 W/m2
15:26 29.8 °F /  -1.2 °C 20.3 °F /  -6.5 °C 30.3in /  1027.4hPa ENE 6.9mph /  11.1km/h 12mph /  19.3km/h 67% 0in /  0.0mm 162 W/m2
15:31 29.7 °F /  -1.3 °C 20.1 °F /  -6.6 °C 30.3in /  1027.4hPa ESE 2mph /  3.2km/h 11mph /  17.7km/h 67% 0in /  0.0mm 104 W/m2
15:36 29.5 °F /  -1.4 °C 19.9 °F /  -6.7 °C 30.3in /  1027.4hPa ENE 6.9mph /  11.1km/h 8mph /  12.9km/h 67% 0in /  0.0mm 114 W/m2
15:41 29.1 °F /  -1.6 °C 19.6 °F /  -6.9 °C 30.3in /  1027.4hPa NE 2.9mph /  4.7km/h 10mph /  16.1km/h 67% 0in /  0.0mm 56 W/m2
15:46 28.9 °F /  -1.7 °C 19.4 °F /  -7 °C 30.3in /  1027.4hPa ESE 2.9mph /  4.7km/h 6mph /  9.7km/h 67% 0in /  0.0mm 88 W/m2
15:51 28.9 °F /  -1.7 °C 19.4 °F /  -7 °C 30.4in /  1027.8hPa East 2mph /  3.2km/h 7mph /  11.3km/h 67% 0in /  0.0mm 72 W/m2
15:56 28.9 °F /  -1.7 °C 19.8 °F /  -6.8 °C 30.4in /  1027.8hPa ENE 4mph /  6.4km/h 6mph /  9.7km/h 68% 0in /  0.0mm 77 W/m2
16:01 28.9 °F /  -1.7 °C 19.4 °F /  -7 °C 30.3in /  1027.4hPa ENE 2.9mph /  4.7km/h 4mph /  6.4km/h 67% 0in /  0.0mm 70 W/m2
16:06 28.9 °F /  -1.7 °C 19.4 °F /  -7 °C 30.3in /  1027.4hPa NE 6.9mph /  11.1km/h 9mph /  14.5km/h 67% 0in /  0.0mm 88 W/m2
16:11 29.1 °F /  -1.6 °C 19.6 °F /  -6.9 °C 30.3in /  1027.4hPa NE 6.9mph /  11.1km/h 10mph /  16.1km/h 67% 0in /  0.0mm 76 W/m2
16:16 29.1 °F /  -1.6 °C 19.2 °F /  -7.1 °C 30.3in /  1027.4hPa ENE 8.9mph /  14.3km/h 9mph /  14.5km/h 66% 0in /  0.0mm 60 W/m2
16:21 29.3 °F /  -1.5 °C 19.4 °F /  -7 °C 30.3in /  1027.4hPa SE 4mph /  6.4km/h 5mph /  8km/h 66% 0in /  0.0mm 60 W/m2
Juneau County Weather
Compliments of Weather Underground - 2 mb